createdAt,value
2018-11-20T18:53:12.855Z,97194.70
2018-11-20T18:55:17.057Z,97192.66
2018-11-20T18:57:21.216Z,97194.67
2018-11-20T18:59:25.304Z,97194.20
2018-11-20T19:01:29.372Z,97198.93
2018-11-20T19:03:33.456Z,97196.26
2018-11-20T19:05:37.526Z,97199.27
2018-11-20T19:07:41.614Z,97201.31
2018-11-20T19:09:45.690Z,97198.23
2018-11-20T19:15:23.894Z,97180.30
2018-11-20T19:17:28.016Z,97183.59
2018-11-20T19:19:32.093Z,97202.13
2018-11-20T19:21:36.181Z,97206.02
2018-11-20T19:23:40.269Z,97214.95
2018-11-20T19:25:44.360Z,97230.90
2018-11-20T19:27:48.457Z,97239.33
2018-11-20T19:29:52.565Z,97236.03
2018-11-20T19:31:56.765Z,97244.91
2018-11-20T19:36:04.984Z,97248.03
2018-11-20T19:38:08.976Z,97252.09
2018-11-20T19:40:13.137Z,97252.44
2018-11-20T19:42:17.135Z,97260.20
2018-11-20T19:44:21.248Z,97257.84
2018-11-20T19:46:25.314Z,97264.32
2018-11-20T19:48:29.473Z,97265.37
2018-11-20T19:50:33.526Z,97271.11
2018-11-20T19:52:37.616Z,97278.92
2018-11-20T19:54:41.666Z,97278.48
2018-11-20T19:56:45.739Z,97287.09
2018-11-20T19:58:49.820Z,97287.41
2018-11-20T20:00:53.924Z,97290.28
2018-11-20T20:02:58.093Z,97285.81
2018-11-20T20:05:02.073Z,97292.77
2018-11-20T20:07:06.144Z,97292.12
2018-11-20T20:09:10.233Z,97288.33
2018-11-20T20:11:14.335Z,97297.58
2018-11-20T20:13:18.399Z,97300.03
2018-11-20T20:15:22.490Z,97306.31
2018-11-20T20:17:26.581Z,97302.52
2018-11-20T20:19:30.672Z,97301.88
2018-11-20T20:21:34.747Z,97301.64
2018-11-20T20:23:38.801Z,97298.26
2018-11-20T20:25:42.902Z,97306.92
2018-11-20T20:27:46.953Z,97306.05
2018-11-20T20:29:51.020Z,97311.70
2018-11-20T20:31:55.082Z,97312.44
2018-11-20T20:33:59.153Z,97308.56
2018-11-20T20:36:03.242Z,97306.96
2018-11-20T20:38:07.311Z,97305.16
2018-11-20T20:40:11.390Z,97304.45
2018-11-20T20:42:15.465Z,97308.95
2018-11-20T20:44:19.582Z,97311.73
2018-11-20T20:46:24.938Z,97319.01
2018-11-20T20:48:28.996Z,97314.76
2018-11-20T20:50:33.077Z,97326.58
2018-11-20T20:52:37.148Z,97323.36
2018-11-20T20:54:41.202Z,97326.33
2018-11-20T20:56:45.287Z,97322.91
2018-11-20T20:58:49.378Z,97328.08
2018-11-20T21:00:53.493Z,97331.66
2018-11-20T21:02:57.581Z,97329.02
2018-11-20T21:05:01.659Z,97327.64
2018-11-20T21:07:05.750Z,97331.34
2018-11-20T21:09:09.818Z,97332.70
2018-11-20T21:11:13.869Z,97333.84
2018-11-20T21:13:17.948Z,97339.61
2018-11-20T21:15:22.004Z,97334.63
2018-11-20T21:17:26.115Z,97340.32
2018-11-20T21:19:30.196Z,97343.38
2018-11-20T21:21:34.264Z,97342.70
2018-11-20T21:23:38.363Z,97350.09
2018-11-20T21:25:42.413Z,97347.77
2018-11-20T21:27:46.484Z,97351.11
2018-11-20T21:29:50.561Z,97343.52
2018-11-20T21:31:54.634Z,97336.72
2018-11-20T21:33:58.713Z,97336.44
2018-11-20T21:36:02.786Z,97339.06
2018-11-20T21:38:06.871Z,97338.58
2018-11-20T21:40:10.953Z,97343.99
2018-11-20T21:42:15.013Z,97348.21
2018-11-20T21:44:19.098Z,97346.05
2018-11-20T21:46:23.157Z,97345.66
2018-11-20T21:48:27.227Z,97344.58
2018-11-20T21:50:31.299Z,97342.68
2018-11-20T21:52:35.398Z,97335.78
2018-11-20T21:54:39.463Z,97345.68
2018-11-20T21:56:43.533Z,97339.84
2018-11-20T21:58:47.618Z,97341.80
2018-11-20T22:00:51.711Z,97340.20
2018-11-20T22:02:55.768Z,97335.84
2018-11-20T22:04:59.853Z,97325.56
2018-11-20T22:07:03.950Z,97322.22
2018-11-20T22:09:08.013Z,97321.28
2018-11-20T22:11:12.089Z,97316.91
2018-11-20T22:13:16.141Z,97328.92
2018-11-20T22:15:20.218Z,97330.23
2018-11-20T22:17:24.288Z,97328.20
2018-11-20T22:19:28.377Z,97334.95
2018-11-20T22:21:32.449Z,97343.22
2018-11-20T22:23:36.502Z,97339.56
2018-11-20T22:25:40.601Z,97355.50
2018-11-20T22:27:44.661Z,97365.36
2018-11-20T22:29:48.735Z,97365.34
2018-11-20T22:31:52.800Z,97372.70
2018-11-20T22:33:56.872Z,97385.21
2018-11-20T22:36:00.963Z,97383.91
2018-11-20T22:38:05.041Z,97395.36
2018-11-20T22:40:09.108Z,97389.44
2018-11-20T22:42:13.171Z,97388.84
2018-11-20T22:44:17.243Z,97389.66
2018-11-20T22:46:21.345Z,97388.25
2018-11-20T22:48:25.428Z,97388.73
2018-11-20T22:50:29.493Z,97383.70
2018-11-20T22:52:33.543Z,97385.16
2018-11-20T22:54:37.614Z,97374.80
2018-11-20T22:56:41.671Z,97374.70
2018-11-20T22:58:45.753Z,97380.09
2018-11-20T23:00:49.814Z,97375.39
2018-11-20T23:02:53.907Z,97368.58
2018-11-20T23:04:57.321Z,97367.06
2018-11-20T23:07:01.384Z,97359.47
2018-11-20T23:09:05.504Z,97369.00
2018-11-20T23:11:09.560Z,97369.23
2018-11-20T23:13:13.626Z,97367.36
2018-11-20T23:15:17.717Z,97370.06
2018-11-20T23:17:22.535Z,97369.64
2018-11-20T23:19:26.624Z,97361.23
2018-11-20T23:21:30.729Z,97369.41
2018-11-20T23:23:34.790Z,97366.97
2018-11-20T23:25:38.880Z,97362.26
2018-11-20T23:27:42.935Z,97354.39
2018-11-20T23:29:47.019Z,97351.09
2018-11-20T23:31:51.078Z,97355.44
2018-11-20T23:33:55.141Z,97352.64
2018-11-20T23:35:59.229Z,97349.28
2018-11-20T23:38:03.302Z,97347.92
2018-11-20T23:40:07.382Z,97348.23
2018-11-20T23:42:11.444Z,97352.12
2018-11-20T23:44:15.492Z,97349.51
2018-11-20T23:46:19.563Z,97343.82
2018-11-20T23:48:23.651Z,97351.69
2018-11-20T23:50:27.715Z,97351.88
2018-11-20T23:52:31.789Z,97346.12
2018-11-20T23:54:35.865Z,97346.42
2018-11-20T23:56:39.933Z,97349.58
2018-11-20T23:58:44.015Z,97346.00
